This is the latest recevied weather packets stored in our database for station/object KS5S. If no packets are shown the sender has not sent any weather packets the latest 10 day(s).
| Time | Temp. | Humidity | Pressure | Rain* | Wind** | Luminosity | Snow |
|---|---|---|---|---|---|---|---|
| 1777924842 | 27.78° C | 60% | 1007.2 hPa | 0 mm | - | 836 W/m² | - |
| 1777924538 | 27.22° C | 62% | 1007.5 hPa | 0 mm | - | 941 W/m² | - |
| 1777924235 | 27.78° C | 61% | 1007.5 hPa | 0 mm | - | 872 W/m² | - |
| 1777923932 | 27.78° C | 60% | 1007.4 hPa | 0 mm | - | 943 W/m² | - |
| 1777923627 | 27.78° C | 62% | 1007.9 hPa | 0 mm | - | 871 W/m² | - |
| 1777923324 | 27.78° C | 60% | 1008.1 hPa | 0 mm | - | 879 W/m² | - |
| 1777923022 | 27.22° C | 62% | 1008 hPa | 0 mm | - | 611 W/m² | - |
| 1777922720 | 27.22° C | 61% | 1007.9 hPa | 0 mm | - | 196 W/m² | - |
| 1777922418 | 27.78° C | 61% | 1008 hPa | 0 mm | - | 466 W/m² | - |
| 1777922116 | 26.67° C | 63% | 1008.1 hPa | 0 mm | - | 408 W/m² | - |
| 1777921812 | 26.67° C | 62% | 1008.1 hPa | 0 mm | - | 229 W/m² | - |
| 1777921508 | 26.67° C | 63% | 1007.9 hPa | 0 mm | - | 502 W/m² | - |
| 1777921204 | 26.11° C | 64% | 1008.4 hPa | 0 mm | - | 604 W/m² | - |
| 1777920901 | 26.67° C | 61% | 1008.4 hPa | 0 mm | - | 800 W/m² | - |
| 1777920598 | 26.67° C | 62% | 1008.3 hPa | 0 mm | - | 192 W/m² | - |
| 1777920293 | 26.11° C | 63% | 1008.5 hPa | 0 mm | - | 1018 W/m² | - |
| 1777919989 | 26.11° C | 63% | 1008.5 hPa | 0 mm | - | 997 W/m² | - |
| 1777919686 | 26.11° C | 63% | 1008.7 hPa | 0 mm | - | 984 W/m² | - |
| 1777919384 | 25.56° C | 63% | 1008.8 hPa | 0 mm | - | 948 W/m² | - |
| 1777919080 | 26.11° C | 63% | 1008.9 hPa | 0 mm | - | 954 W/m² | - |
| 1777918778 | 26.67° C | 62% | 1008.8 hPa | 0 mm | - | 1020 W/m² | - |
| 1777918475 | 26.11° C | 64% | 1009 hPa | 0 mm | - | 943 W/m² | - |
| 1777918174 | 25.56° C | 65% | 1008.9 hPa | 0 mm | - | 993 W/m² | - |
| 1777917872 | 26.11° C | 62% | 1009.1 hPa | 0 mm | - | 1003 W/m² | - |
| 1777917570 | 25.56° C | 66% | 1008.9 hPa | 0 mm | - | 970 W/m² | - |
* Rain latest hour (hover to see other rain measurements)
** Current wind speed in m/s (hover to see current wind gust speed)